createdAt,value
2018-08-06T00:00:29.945Z,1016.43
2018-08-06T00:01:29.900Z,1016.50
2018-08-06T00:02:29.880Z,1016.47
2018-08-06T00:03:29.867Z,1016.49
2018-08-06T00:04:29.854Z,1016.47
2018-08-06T00:05:29.873Z,1016.49
2018-08-06T00:06:29.879Z,1016.48
2018-08-06T00:07:29.828Z,1016.42
2018-08-06T00:08:29.817Z,1016.41
2018-08-06T00:09:29.850Z,1016.48
2018-08-06T00:10:29.788Z,1016.39
2018-08-06T00:11:29.807Z,1016.38
2018-08-06T00:12:29.760Z,1016.38
2018-08-06T00:13:29.759Z,1016.32
2018-08-06T00:14:29.785Z,1016.34
2018-08-06T00:15:29.756Z,1016.38
2018-08-06T00:16:29.730Z,1016.31
2018-08-06T00:17:29.703Z,1016.33
2018-08-06T00:18:29.708Z,1016.33
2018-08-06T00:19:29.754Z,1016.27
2018-08-06T00:20:29.698Z,1016.30
2018-08-06T00:21:29.658Z,1016.26
2018-08-06T00:22:29.649Z,1016.21
2018-08-06T00:23:29.643Z,1016.23
2018-08-06T00:24:29.639Z,1016.23
2018-08-06T00:25:29.646Z,1016.22
2018-08-06T00:26:29.610Z,1016.18
2018-08-06T00:27:29.598Z,1016.19
2018-08-06T00:28:29.582Z,1016.14
2018-08-06T00:29:29.659Z,1016.13
2018-08-06T00:30:29.571Z,1016.12
2018-08-06T00:31:29.544Z,1016.08
2018-08-06T00:32:29.619Z,1016.07
2018-08-06T00:33:29.525Z,1016.04
2018-08-06T00:34:29.512Z,1016.09
2018-08-06T00:35:29.501Z,1016.06
2018-08-06T00:36:29.525Z,1016.11
2018-08-06T00:37:29.480Z,1016.08
2018-08-06T00:38:29.468Z,1016.04
2018-08-06T00:39:29.455Z,1016.07
2018-08-06T00:40:29.475Z,1016.04
2018-08-06T00:41:29.465Z,1016.04
2018-08-06T00:42:29.420Z,1016.04
2018-08-06T00:43:29.416Z,1016.09
2018-08-06T00:44:29.405Z,1016.03
2018-08-06T00:45:29.388Z,1016.03
2018-08-06T00:46:29.394Z,1016.07
2018-08-06T00:47:29.384Z,1016.01
2018-08-06T00:48:29.379Z,1016.01
2018-08-06T00:49:29.337Z,1015.99
2018-08-06T00:50:29.328Z,1015.96
2018-08-06T00:51:29.322Z,1015.98
2018-08-06T00:52:29.356Z,1015.98
2018-08-06T00:53:29.296Z,1015.99
2018-08-06T00:54:29.281Z,1015.94
2018-08-06T00:55:29.323Z,1015.98
2018-08-06T00:56:29.256Z,1015.98
2018-08-06T00:57:29.270Z,1015.92
2018-08-06T00:58:29.272Z,1015.86
2018-08-06T00:59:29.264Z,1015.90
2018-08-06T01:00:29.216Z,1015.87
2018-08-06T01:01:29.209Z,1015.85
2018-08-06T01:02:29.201Z,1015.83
2018-08-06T01:03:29.221Z,1015.84
2018-08-06T01:04:29.178Z,1015.80
2018-08-06T01:05:29.158Z,1015.81
2018-08-06T01:06:29.151Z,1015.79
2018-08-06T01:07:29.131Z,1015.77
2018-08-06T01:08:29.211Z,1015.76
2018-08-06T01:09:29.113Z,1015.75
2018-08-06T01:10:29.163Z,1015.72
2018-08-06T01:11:29.134Z,1015.71
2018-08-06T01:12:29.078Z,1015.71
2018-08-06T01:13:29.073Z,1015.67
2018-08-06T01:14:29.068Z,1015.73
2018-08-06T01:15:29.125Z,1015.72
2018-08-06T01:16:29.036Z,1015.76
2018-08-06T01:17:29.031Z,1015.69
2018-08-06T01:18:29.008Z,1015.67
2018-08-06T01:19:28.998Z,1015.62
2018-08-06T01:20:29.041Z,1015.68
2018-08-06T01:21:29.007Z,1015.72
2018-08-06T01:22:28.968Z,1015.62
2018-08-06T01:23:28.993Z,1015.62
2018-08-06T01:24:28.948Z,1015.64
2018-08-06T01:25:28.931Z,1015.61
2018-08-06T01:26:29.480Z,1015.64
2018-08-06T01:27:28.915Z,1015.62
2018-08-06T01:28:28.935Z,1015.66
2018-08-06T01:29:28.889Z,1015.64
2018-08-06T01:30:28.888Z,1015.61
2018-08-06T01:31:28.872Z,1015.58
2018-08-06T01:32:28.899Z,1015.61
2018-08-06T01:33:28.852Z,1015.53
2018-08-06T01:34:28.870Z,1015.57
2018-08-06T01:35:28.823Z,1015.54
2018-08-06T01:36:28.921Z,1015.60
2018-08-06T01:37:28.809Z,1015.56
2018-08-06T01:38:28.837Z,1015.50
2018-08-06T01:39:28.870Z,1015.51
2018-08-06T01:40:28.804Z,1015.51
2018-08-06T01:41:28.759Z,1015.60
2018-08-06T01:42:28.754Z,1015.55
2018-08-06T01:43:28.737Z,1015.53
2018-08-06T01:44:28.729Z,1015.52
2018-08-06T01:45:28.751Z,1015.51
2018-08-06T01:46:28.740Z,1015.55
2018-08-06T01:47:28.692Z,1015.45
2018-08-06T01:48:28.715Z,1015.48
2018-08-06T01:49:28.671Z,1015.46
2018-08-06T01:50:28.666Z,1015.51
2018-08-06T01:51:28.684Z,1015.49
2018-08-06T01:52:28.643Z,1015.49
2018-08-06T01:53:28.636Z,1015.50
2018-08-06T01:54:28.615Z,1015.48
2018-08-06T01:55:28.682Z,1015.47
2018-08-06T01:56:28.597Z,1015.53
2018-08-06T01:57:28.594Z,1015.48
2018-08-06T01:58:28.575Z,1015.46
2018-08-06T01:59:28.557Z,1015.47
2018-08-06T02:00:28.577Z,1015.45
2018-08-06T02:01:28.535Z,1015.41
2018-08-06T02:02:28.525Z,1015.46
2018-08-06T02:03:28.516Z,1015.45
2018-08-06T02:04:28.500Z,1015.44
2018-08-06T02:05:28.520Z,1015.43
2018-08-06T02:06:28.513Z,1015.43
2018-08-06T02:07:28.470Z,1015.44
2018-08-06T02:08:28.489Z,1015.44
2018-08-06T02:09:28.458Z,1015.43
2018-08-06T02:10:28.431Z,1015.38
2018-08-06T02:11:28.421Z,1015.38
2018-08-06T02:12:28.417Z,1015.39
2018-08-06T02:13:28.431Z,1015.37
2018-08-06T02:14:28.391Z,1015.38
2018-08-06T02:15:28.406Z,1015.33
2018-08-06T02:16:28.370Z,1015.32
2018-08-06T02:17:28.354Z,1015.30
2018-08-06T02:18:28.369Z,1015.33
2018-08-06T02:19:28.417Z,1015.32
2018-08-06T02:20:28.324Z,1015.31
2018-08-06T02:21:28.316Z,1015.30
2018-08-06T02:22:28.328Z,1015.27
2018-08-06T02:23:28.319Z,1015.21
2018-08-06T02:24:28.281Z,1015.20
2018-08-06T02:25:28.272Z,1015.18
2018-08-06T02:26:28.256Z,1015.16
2018-08-06T02:27:28.262Z,1015.17
2018-08-06T02:28:28.232Z,1015.18
2018-08-06T02:29:28.227Z,1015.13
2018-08-06T02:30:28.321Z,1015.14
2018-08-06T02:31:28.199Z,1015.18
2018-08-06T02:32:28.213Z,1015.14
2018-08-06T02:33:28.195Z,1015.19
2018-08-06T02:34:28.165Z,1015.13
2018-08-06T02:35:28.153Z,1015.10
2018-08-06T02:36:28.141Z,1015.14
2018-08-06T02:37:28.171Z,1015.06
2018-08-06T02:38:28.157Z,1015.06
2018-08-06T02:39:28.104Z,1015.05
2018-08-06T02:40:28.174Z,1015.04
2018-08-06T02:41:28.095Z,1015.06
2018-08-06T02:42:28.106Z,1015.00
2018-08-06T02:43:28.059Z,1015.02
2018-08-06T02:44:28.081Z,1014.97
2018-08-06T02:45:28.048Z,1014.94
2018-08-06T02:46:28.031Z,1014.96
2018-08-06T02:47:28.028Z,1014.98
2018-08-06T02:48:28.035Z,1014.96
2018-08-06T02:49:28.009Z,1014.93
2018-08-06T02:50:27.987Z,1014.95
2018-08-06T02:51:27.974Z,1014.94
2018-08-06T02:52:27.962Z,1014.93
2018-08-06T02:53:27.970Z,1014.93
2018-08-06T02:54:27.981Z,1014.91
2018-08-06T02:55:27.926Z,1014.95
2018-08-06T02:56:27.917Z,1014.94
2018-08-06T02:57:27.905Z,1015.00
2018-08-06T02:58:27.931Z,1014.98
2018-08-06T02:59:27.931Z,1015.03
2018-08-06T03:00:27.872Z,1014.94
2018-08-06T03:01:27.859Z,1014.92
2018-08-06T03:02:27.950Z,1014.96
2018-08-06T03:03:27.836Z,1014.91
2018-08-06T03:04:27.871Z,1015.00
2018-08-06T03:05:27.821Z,1014.89
2018-08-06T03:06:27.877Z,1014.95
2018-08-06T03:07:27.788Z,1014.95
2018-08-06T03:08:27.782Z,1014.99
2018-08-06T03:09:27.772Z,1014.95
2018-08-06T03:10:27.808Z,1014.97
2018-08-06T03:11:27.747Z,1014.94
2018-08-06T03:12:27.731Z,1014.95
2018-08-06T03:13:27.724Z,1015.00
2018-08-06T03:14:27.718Z,1014.97
2018-08-06T03:15:27.732Z,1014.98
2018-08-06T03:16:27.695Z,1014.96
2018-08-06T03:17:27.683Z,1014.92
2018-08-06T03:18:27.717Z,1014.92
2018-08-06T03:19:27.660Z,1014.92
2018-08-06T03:20:27.685Z,1014.92
2018-08-06T03:21:27.639Z,1014.88
2018-08-06T03:22:27.622Z,1014.89
2018-08-06T03:23:27.613Z,1014.88
2018-08-06T03:24:27.608Z,1014.95
2018-08-06T03:25:27.628Z,1014.90
2018-08-06T03:26:27.577Z,1014.97
2018-08-06T03:27:27.566Z,1014.90
2018-08-06T03:28:27.587Z,1014.91
2018-08-06T03:29:27.579Z,1014.90
2018-08-06T03:30:27.562Z,1014.89
2018-08-06T03:31:27.570Z,1014.82
2018-08-06T03:32:27.608Z,1014.81
2018-08-06T03:33:27.531Z,1014.87
2018-08-06T03:34:27.488Z,1014.86
2018-08-06T03:35:27.480Z,1014.84
2018-08-06T03:36:27.474Z,1014.83
2018-08-06T03:37:27.486Z,1014.85
2018-08-06T03:38:27.445Z,1014.82
2018-08-06T03:39:27.434Z,1014.79
2018-08-06T03:40:27.419Z,1014.80
2018-08-06T03:41:27.407Z,1014.80
2018-08-06T03:42:27.434Z,1014.73
2018-08-06T03:43:27.388Z,1014.72
2018-08-06T03:44:27.374Z,1014.70
2018-08-06T03:45:27.401Z,1014.70
2018-08-06T03:46:27.358Z,1014.69
2018-08-06T03:47:27.340Z,1014.71
2018-08-06T03:48:27.407Z,1014.69
2018-08-06T03:49:27.319Z,1014.64
2018-08-06T03:50:27.347Z,1014.65
2018-08-06T03:51:27.296Z,1014.70
2018-08-06T03:52:27.291Z,1014.69
2018-08-06T03:53:27.281Z,1014.70
2018-08-06T03:54:27.296Z,1014.69
2018-08-06T03:55:27.256Z,1014.74
2018-08-06T03:56:27.246Z,1014.71
2018-08-06T03:57:27.236Z,1014.70
2018-08-06T03:58:27.223Z,1014.72
2018-08-06T03:59:27.289Z,1014.66
2018-08-06T04:00:27.199Z,1014.66
2018-08-06T04:01:27.224Z,1014.67
2018-08-06T04:02:27.184Z,1014.67
2018-08-06T04:03:27.165Z,1014.63
2018-08-06T04:04:27.208Z,1014.67
2018-08-06T04:05:27.140Z,1014.67
2018-08-06T04:06:27.168Z,1014.70
2018-08-06T04:07:27.117Z,1014.67
2018-08-06T04:08:27.147Z,1014.66
2018-08-06T04:09:27.118Z,1014.67
2018-08-06T04:10:27.086Z,1014.65
2018-08-06T04:11:27.989Z,1014.67
2018-08-06T04:12:27.064Z,1014.62
2018-08-06T04:13:27.119Z,1014.62
2018-08-06T04:14:27.073Z,1014.61
2018-08-06T04:15:27.044Z,1014.62
2018-08-06T04:16:27.020Z,1014.60
2018-08-06T04:17:27.010Z,1014.63
2018-08-06T04:18:27.022Z,1014.65
2018-08-06T04:19:27.014Z,1014.62
2018-08-06T04:20:26.978Z,1014.62
2018-08-06T04:21:26.961Z,1014.60
2018-08-06T04:22:26.980Z,1014.60
2018-08-06T04:23:26.938Z,1014.61
2018-08-06T04:24:26.930Z,1014.53
2018-08-06T04:25:26.923Z,1014.64
2018-08-06T04:26:26.944Z,1014.62
2018-08-06T04:27:26.894Z,1014.63
2018-08-06T04:28:26.888Z,1014.60
2018-08-06T04:29:26.877Z,1014.62
2018-08-06T04:30:26.903Z,1014.57
2018-08-06T04:31:26.983Z,1014.58
2018-08-06T04:32:26.839Z,1014.53
2018-08-06T04:33:26.829Z,1014.53
2018-08-06T04:34:26.863Z,1014.52
2018-08-06T04:35:26.804Z,1014.52
2018-08-06T04:36:26.795Z,1014.46
2018-08-06T04:37:26.819Z,1014.44
2018-08-06T04:38:27.515Z,1014.42
2018-08-06T04:39:26.770Z,1014.45
2018-08-06T04:40:26.785Z,1014.45
2018-08-06T04:41:26.741Z,1014.45
2018-08-06T04:42:26.758Z,1014.47
2018-08-06T04:43:26.718Z,1014.47
2018-08-06T04:44:26.718Z,1014.43
2018-08-06T04:45:26.696Z,1014.47
2018-08-06T04:46:33.740Z,1014.49
2018-08-06T04:47:26.696Z,1014.44
2018-08-06T04:48:26.701Z,1014.49
2018-08-06T04:49:26.652Z,1014.44
2018-08-06T04:50:26.695Z,1014.42
2018-08-06T04:51:26.633Z,1014.46
2018-08-06T04:52:26.618Z,1014.43
2018-08-06T04:53:26.642Z,1014.44
2018-08-06T04:54:26.603Z,1014.46
2018-08-06T04:55:26.581Z,1014.46
2018-08-06T04:56:26.569Z,1014.43
2018-08-06T04:57:26.559Z,1014.50
2018-08-06T04:58:26.594Z,1014.45
2018-08-06T04:59:26.556Z,1014.42
2018-08-06T05:00:26.526Z,1014.47
2018-08-06T05:01:26.517Z,1014.49
2018-08-06T05:02:26.563Z,1014.45
2018-08-06T05:03:26.525Z,1014.45
2018-08-06T05:04:26.483Z,1014.41
2018-08-06T05:05:26.473Z,1014.47
2018-08-06T05:06:26.464Z,1014.40
2018-08-06T05:07:26.450Z,1014.40
2018-08-06T05:08:26.466Z,1014.40
2018-08-06T05:09:26.429Z,1014.40
2018-08-06T05:10:26.408Z,1014.40
2018-08-06T05:11:26.504Z,1014.43
2018-08-06T05:12:26.392Z,1014.45
2018-08-06T05:13:26.383Z,1014.41
2018-08-06T05:14:26.414Z,1014.45
2018-08-06T05:15:26.358Z,1014.43
2018-08-06T05:16:26.384Z,1014.45
2018-08-06T05:17:26.364Z,1014.44
2018-08-06T05:18:26.327Z,1014.44
2018-08-06T05:19:26.344Z,1014.48
2018-08-06T05:20:26.297Z,1014.47
2018-08-06T05:21:26.296Z,1014.43
2018-08-06T05:22:26.310Z,1014.44
2018-08-06T05:23:26.273Z,1014.46
2018-08-06T05:24:26.269Z,1014.43
2018-08-06T05:25:26.266Z,1014.44
2018-08-06T05:26:26.235Z,1014.52
2018-08-06T05:27:26.251Z,1014.48
2018-08-06T05:28:26.211Z,1014.43
2018-08-06T05:29:26.198Z,1014.40
2018-08-06T05:30:26.188Z,1014.45
2018-08-06T05:31:26.183Z,1014.38
2018-08-06T05:32:26.188Z,1014.47
2018-08-06T05:33:26.247Z,1014.47
2018-08-06T05:34:26.140Z,1014.45
2018-08-06T05:35:26.133Z,1014.44
2018-08-06T05:36:26.123Z,1014.45
2018-08-06T05:37:26.111Z,1014.54
2018-08-06T05:38:26.128Z,1014.47
2018-08-06T05:39:26.087Z,1014.51
2018-08-06T05:40:26.143Z,1014.51
2018-08-06T05:41:26.063Z,1014.52
2018-08-06T05:42:26.057Z,1014.54
2018-08-06T05:43:26.083Z,1014.48
2018-08-06T05:44:26.030Z,1014.47
2018-08-06T05:45:26.030Z,1014.45
2018-08-06T05:46:26.013Z,1014.48
2018-08-06T05:47:25.999Z,1014.48
2018-08-06T05:48:26.034Z,1014.49
2018-08-06T05:49:26.005Z,1014.48
2018-08-06T05:50:25.977Z,1014.44
2018-08-06T05:51:25.950Z,1014.47
2018-08-06T05:52:25.944Z,1014.51
2018-08-06T05:53:25.958Z,1014.50
2018-08-06T05:54:26.040Z,1014.49
2018-08-06T05:55:25.921Z,1014.47
2018-08-06T05:56:25.912Z,1014.50
2018-08-06T05:57:25.890Z,1014.48
2018-08-06T05:58:25.916Z,1014.48
2018-08-06T05:59:25.888Z,1014.47
2018-08-06T06:00:25.866Z,1014.50
2018-08-06T06:01:25.880Z,1014.50
2018-08-06T06:02:25.876Z,1014.53
2018-08-06T06:03:25.929Z,1014.46
2018-08-06T06:04:25.812Z,1014.46
2018-08-06T06:05:25.804Z,1014.48
2018-08-06T06:06:25.800Z,1014.47
2018-08-06T06:07:25.807Z,1014.46
2018-08-06T06:08:25.773Z,1014.46
2018-08-06T06:09:25.820Z,1014.51
2018-08-06T06:10:27.035Z,1014.49
2018-08-06T06:11:25.736Z,1014.48
2018-08-06T06:12:25.728Z,1014.51
2018-08-06T06:13:25.732Z,1014.50
2018-08-06T06:14:25.736Z,1014.51
2018-08-06T06:15:25.687Z,1014.49
2018-08-06T06:16:25.679Z,1014.54
2018-08-06T06:17:25.671Z,1014.46
2018-08-06T06:18:25.659Z,1014.48
2018-08-06T06:19:25.674Z,1014.52
2018-08-06T06:20:25.632Z,1014.54
2018-08-06T06:21:25.620Z,1014.51
2018-08-06T06:22:25.612Z,1014.53
2018-08-06T06:23:25.631Z,1014.52
2018-08-06T06:24:25.624Z,1014.55
2018-08-06T06:25:25.573Z,1014.48
2018-08-06T06:26:25.562Z,1014.52
2018-08-06T06:27:25.546Z,1014.52
2018-08-06T06:28:25.553Z,1014.47
2018-08-06T06:29:25.563Z,1014.42
2018-08-06T06:30:25.535Z,1014.43
2018-08-06T06:31:25.508Z,1014.41
2018-08-06T06:32:25.495Z,1014.35
2018-08-06T06:33:25.499Z,1014.42
2018-08-06T06:34:25.544Z,1014.41
2018-08-06T06:35:25.456Z,1014.39
2018-08-06T06:36:25.490Z,1014.38
2018-08-06T06:37:25.489Z,1014.36
2018-08-06T06:38:25.425Z,1014.37
2018-08-06T06:39:25.413Z,1014.38
2018-08-06T06:40:25.408Z,1014.33
2018-08-06T06:41:25.394Z,1014.37
2018-08-06T06:42:25.421Z,1014.35
2018-08-06T06:43:25.370Z,1014.36
2018-08-06T06:44:25.377Z,1014.33
2018-08-06T06:45:25.350Z,1014.33
2018-08-06T06:46:25.367Z,1014.33
2018-08-06T06:47:25.365Z,1014.37
2018-08-06T06:48:25.316Z,1014.37
2018-08-06T06:49:25.350Z,1014.34
2018-08-06T06:50:25.303Z,1014.27
2018-08-06T06:51:25.321Z,1014.30
2018-08-06T06:52:25.273Z,1014.31
2018-08-06T06:53:25.280Z,1014.32
2018-08-06T06:54:25.322Z,1014.30
2018-08-06T06:55:25.238Z,1014.28
2018-08-06T06:56:25.258Z,1014.25
2018-08-06T06:57:25.225Z,1014.25
2018-08-06T06:58:25.211Z,1014.29
2018-08-06T06:59:25.200Z,1014.26
2018-08-06T07:00:25.229Z,1014.31
2018-08-06T07:01:25.183Z,1014.30
2018-08-06T07:02:25.161Z,1014.30
2018-08-06T07:03:25.148Z,1014.28
2018-08-06T07:04:25.142Z,1014.28
2018-08-06T07:05:25.161Z,1014.34
2018-08-06T07:06:25.243Z,1014.36
2018-08-06T07:07:25.110Z,1014.30
2018-08-06T07:08:25.103Z,1014.30
2018-08-06T07:09:25.140Z,1014.30
2018-08-06T07:10:25.075Z,1014.30
2018-08-06T07:11:25.080Z,1014.27
2018-08-06T07:12:25.045Z,1014.26
2018-08-06T07:13:25.041Z,1014.23
2018-08-06T07:14:25.061Z,1014.21
2018-08-06T07:15:25.016Z,1014.25
2018-08-06T07:16:25.558Z,1014.21
2018-08-06T07:17:24.997Z,1014.22
2018-08-06T07:18:25.018Z,1014.20
2018-08-06T07:19:24.975Z,1014.20
2018-08-06T07:20:24.966Z,1014.21
2018-08-06T07:21:24.948Z,1014.22
2018-08-06T07:22:24.941Z,1014.19
2018-08-06T07:23:24.956Z,1014.17
2018-08-06T07:24:24.914Z,1014.20
2018-08-06T07:25:24.904Z,1014.15
2018-08-06T07:26:24.894Z,1014.14
2018-08-06T07:27:24.882Z,1014.07
2018-08-06T07:28:24.919Z,1014.10
2018-08-06T07:29:24.859Z,1014.09
2018-08-06T07:30:24.947Z,1013.99
2018-08-06T07:31:24.836Z,1014.05
2018-08-06T07:32:24.828Z,1014.04
2018-08-06T07:33:24.863Z,1013.96
2018-08-06T07:34:24.839Z,1013.94
2018-08-06T07:35:24.798Z,1013.88
2018-08-06T07:36:24.785Z,1013.94
2018-08-06T07:37:24.804Z,1013.85
2018-08-06T07:38:24.767Z,1013.82
2018-08-06T07:39:24.830Z,1013.83
2018-08-06T07:40:24.743Z,1013.80
2018-08-06T07:41:24.736Z,1013.79
2018-08-06T07:42:24.717Z,1013.80
2018-08-06T07:43:24.710Z,1013.77
2018-08-06T07:44:24.733Z,1013.76
2018-08-06T07:45:24.699Z,1013.77
2018-08-06T07:46:24.670Z,1013.80
2018-08-06T07:47:24.662Z,1013.68
2018-08-06T07:48:24.681Z,1013.75
2018-08-06T07:49:24.663Z,1013.76
2018-08-06T07:50:24.659Z,1013.72
2018-08-06T07:51:24.619Z,1013.70
2018-08-06T07:52:24.605Z,1013.72
2018-08-06T07:53:24.624Z,1013.70
2018-08-06T07:54:24.584Z,1013.69
2018-08-06T07:55:24.608Z,1013.69
2018-08-06T07:56:24.562Z,1013.63
2018-08-06T07:57:24.550Z,1013.59
2018-08-06T07:58:24.536Z,1013.58
2018-08-06T07:59:24.569Z,1013.56
2018-08-06T08:00:24.516Z,1013.56
2018-08-06T08:01:24.501Z,1013.53
2018-08-06T08:02:24.489Z,1013.53
2018-08-06T08:03:24.484Z,1013.53
2018-08-06T08:04:24.500Z,1013.54
2018-08-06T08:05:24.515Z,1013.55
2018-08-06T08:06:24.457Z,1013.60
2018-08-06T08:07:24.439Z,1013.54
2018-08-06T08:08:24.429Z,1013.56
2018-08-06T08:09:24.413Z,1013.56
2018-08-06T08:10:24.447Z,1013.59
2018-08-06T08:11:24.397Z,1013.52
2018-08-06T08:12:24.393Z,1013.48
2018-08-06T08:13:24.373Z,1013.48
2018-08-06T08:14:24.364Z,1013.43
2018-08-06T08:15:24.379Z,1013.44
2018-08-06T08:16:24.356Z,1013.47
2018-08-06T08:17:24.335Z,1013.42
2018-08-06T08:18:24.330Z,1013.46
2018-08-06T08:19:24.369Z,1013.39
2018-08-06T08:20:24.389Z,1013.40
2018-08-06T08:21:24.296Z,1013.41
2018-08-06T08:22:24.295Z,1013.45
2018-08-06T08:23:24.285Z,1013.42
2018-08-06T08:24:24.292Z,1013.43
2018-08-06T08:25:24.243Z,1013.41
2018-08-06T08:26:24.259Z,1013.40
2018-08-06T08:27:24.223Z,1013.37
2018-08-06T08:28:24.211Z,1013.38
2018-08-06T08:29:24.256Z,1013.34
2018-08-06T08:30:24.208Z,1013.35
2018-08-06T08:31:24.172Z,1013.27
2018-08-06T08:32:24.182Z,1013.33
2018-08-06T08:33:24.164Z,1013.23
2018-08-06T08:34:24.167Z,1013.23
2018-08-06T08:35:24.130Z,1013.26
2018-08-06T08:36:24.117Z,1013.21
2018-08-06T08:37:24.108Z,1013.20
2018-08-06T08:38:24.099Z,1013.23
2018-08-06T08:39:24.125Z,1013.23
2018-08-06T08:40:24.076Z,1013.19
2018-08-06T08:41:24.063Z,1013.24
2018-08-06T08:42:24.051Z,1013.23
2018-08-06T08:43:24.046Z,1013.17
2018-08-06T08:44:24.080Z,1013.22
2018-08-06T08:45:24.105Z,1013.20
2018-08-06T08:46:24.011Z,1013.18
2018-08-06T08:47:23.998Z,1013.21
2018-08-06T08:48:23.989Z,1013.23
2018-08-06T08:49:24.031Z,1013.22
2018-08-06T08:50:23.993Z,1013.28
2018-08-06T08:51:23.956Z,1013.20
2018-08-06T08:52:23.955Z,1013.15
2018-08-06T08:53:23.934Z,1013.11
2018-08-06T08:54:23.922Z,1013.16
2018-08-06T08:55:23.956Z,1013.13
2018-08-06T08:56:23.899Z,1013.17
2018-08-06T08:57:23.889Z,1013.06
2018-08-06T08:58:23.877Z,1013.06
2018-08-06T08:59:23.865Z,1013.14
2018-08-06T09:00:23.903Z,1013.06
2018-08-06T09:01:23.888Z,1013.05
2018-08-06T09:02:23.836Z,1013.07
2018-08-06T09:03:23.857Z,1013.01
2018-08-06T09:04:23.817Z,1013.03
2018-08-06T09:05:24.625Z,1013.01
2018-08-06T09:06:23.886Z,1013.05
2018-08-06T09:07:23.827Z,1013.04
2018-08-06T09:08:23.819Z,1013.03
2018-08-06T09:09:23.763Z,1012.98
2018-08-06T09:10:23.744Z,1013.01
2018-08-06T09:11:23.734Z,1012.93
2018-08-06T09:12:23.722Z,1012.97
2018-08-06T09:13:23.738Z,1012.93
2018-08-06T09:14:23.710Z,1012.94
2018-08-06T09:15:23.713Z,1012.95
2018-08-06T09:16:23.723Z,1012.97
2018-08-06T09:17:23.670Z,1012.94
2018-08-06T09:18:23.662Z,1012.95
2018-08-06T09:19:23.645Z,1012.92
2018-08-06T09:20:23.658Z,1012.92
2018-08-06T09:21:23.624Z,1012.94
2018-08-06T09:22:23.618Z,1012.90
2018-08-06T09:23:23.623Z,1012.90
2018-08-06T09:24:23.592Z,1012.87
2018-08-06T09:25:23.628Z,1012.87
2018-08-06T09:26:23.568Z,1012.88
2018-08-06T09:27:23.559Z,1012.85
2018-08-06T09:28:23.548Z,1012.89
2018-08-06T09:29:23.538Z,1012.86
2018-08-06T09:30:23.573Z,1012.84
2018-08-06T09:31:23.514Z,1012.84
2018-08-06T09:32:23.501Z,1012.80
2018-08-06T09:33:23.496Z,1012.75
2018-08-06T09:34:23.479Z,1012.83
2018-08-06T09:35:23.509Z,1012.79
2018-08-06T09:36:23.499Z,1012.81
2018-08-06T09:37:23.447Z,1012.81
2018-08-06T09:38:23.441Z,1012.78
2018-08-06T09:39:23.433Z,1012.75
2018-08-06T09:40:23.424Z,1012.72
2018-08-06T09:41:23.447Z,1012.71
2018-08-06T09:42:23.393Z,1012.72
2018-08-06T09:43:23.385Z,1012.70
2018-08-06T09:44:23.387Z,1012.69
2018-08-06T09:45:23.415Z,1012.65
2018-08-06T09:46:23.354Z,1012.63
2018-08-06T09:47:23.335Z,1012.62
2018-08-06T09:48:23.330Z,1012.58
2018-08-06T09:49:23.315Z,1012.58
2018-08-06T09:50:23.334Z,1012.53
2018-08-06T09:51:23.296Z,1012.60
2018-08-06T09:52:23.323Z,1012.54
2018-08-06T09:53:23.268Z,1012.57
2018-08-06T09:54:23.268Z,1012.40
2018-08-06T09:55:23.251Z,1012.47
2018-08-06T09:56:23.240Z,1012.44
2018-08-06T09:57:23.265Z,1012.43
2018-08-06T09:58:23.273Z,1012.48
2018-08-06T09:59:23.211Z,1012.38
2018-08-06T10:00:23.230Z,1012.32
2018-08-06T10:01:23.182Z,1012.35
2018-08-06T10:02:23.216Z,1012.33
2018-08-06T10:03:23.190Z,1012.39
2018-08-06T10:04:23.152Z,1012.37
2018-08-06T10:05:23.144Z,1012.37
2018-08-06T10:06:23.318Z,1012.32
2018-08-06T10:07:23.161Z,1012.30
2018-08-06T10:08:23.110Z,1012.29
2018-08-06T10:09:23.122Z,1012.29
2018-08-06T10:10:23.087Z,1012.22
2018-08-06T10:11:23.079Z,1012.20
2018-08-06T10:12:23.099Z,1012.16
2018-08-06T10:13:23.056Z,1012.17
2018-08-06T10:14:23.044Z,1012.15
2018-08-06T10:15:23.032Z,1012.12
2018-08-06T10:16:23.026Z,1012.14
2018-08-06T10:17:23.039Z,1012.10
2018-08-06T10:18:23.012Z,1012.10
2018-08-06T10:19:23.131Z,1012.17
2018-08-06T10:20:22.977Z,1012.12
2018-08-06T10:21:23.043Z,1012.15
2018-08-06T10:22:22.981Z,1012.19
2018-08-06T10:23:22.975Z,1012.10
2018-08-06T10:24:22.940Z,1012.11
2018-08-06T10:25:22.940Z,1012.07
2018-08-06T10:26:22.919Z,1012.13
2018-08-06T10:27:22.907Z,1012.08
2018-08-06T10:28:22.917Z,1012.06
2018-08-06T10:29:22.914Z,1012.05
2018-08-06T10:30:22.974Z,1012.05
2018-08-06T10:31:22.860Z,1012.03
2018-08-06T10:32:22.858Z,1012.01
2018-08-06T10:33:22.877Z,1012.07
2018-08-06T10:34:22.833Z,1011.96
2018-08-06T10:35:22.822Z,1011.95
2018-08-06T10:36:22.844Z,1011.86
2018-08-06T10:37:22.828Z,1011.90
2018-08-06T10:38:22.794Z,1011.91
2018-08-06T10:39:22.782Z,1011.94
2018-08-06T10:40:22.839Z,1011.98
2018-08-06T10:41:22.785Z,1011.97
2018-08-06T10:42:22.743Z,1011.92
2018-08-06T10:43:22.729Z,1011.98
2018-08-06T10:44:22.720Z,1011.94
2018-08-06T10:45:22.715Z,1011.88
2018-08-06T10:46:22.732Z,1011.93
2018-08-06T10:47:22.721Z,1011.92
2018-08-06T10:48:22.721Z,1011.85
2018-08-06T10:49:22.686Z,1011.86
2018-08-06T10:50:22.656Z,1011.90
2018-08-06T10:51:22.672Z,1011.88
2018-08-06T10:52:22.647Z,1011.88
2018-08-06T10:53:22.648Z,1011.90
2018-08-06T10:54:22.655Z,1011.89
2018-08-06T10:55:22.606Z,1011.89
2018-08-06T10:56:22.590Z,1011.86
2018-08-06T10:57:22.578Z,1011.87
2018-08-06T10:58:22.742Z,1011.87
2018-08-06T10:59:22.556Z,1011.82
2018-08-06T11:00:22.544Z,1011.76
2018-08-06T11:01:22.575Z,1011.76
2018-08-06T11:02:22.522Z,1011.69
2018-08-06T11:03:22.549Z,1011.74
2018-08-06T11:04:22.511Z,1011.76
2018-08-06T11:05:22.493Z,1011.67
2018-08-06T11:06:22.479Z,1011.64
2018-08-06T11:07:22.466Z,1011.63
2018-08-06T11:08:22.495Z,1011.64
2018-08-06T11:09:22.449Z,1011.61
2018-08-06T11:10:22.434Z,1011.59
2018-08-06T11:11:22.434Z,1011.57
2018-08-06T11:12:22.416Z,1011.55
2018-08-06T11:13:22.436Z,1011.56
2018-08-06T11:14:22.441Z,1011.52
2018-08-06T11:15:22.381Z,1011.51
2018-08-06T11:16:22.399Z,1011.49
2018-08-06T11:17:22.396Z,1011.40
2018-08-06T11:18:22.350Z,1011.47
2018-08-06T11:19:22.339Z,1011.49
2018-08-06T11:20:22.372Z,1011.46
2018-08-06T11:21:22.337Z,1011.54
2018-08-06T11:22:22.301Z,1011.49
2018-08-06T11:23:22.296Z,1011.46
2018-08-06T11:24:22.278Z,1011.41
2018-08-06T11:25:22.348Z,1011.41
2018-08-06T11:26:22.293Z,1011.39
2018-08-06T11:27:22.287Z,1011.35
2018-08-06T11:28:22.349Z,1011.35
2018-08-06T11:29:22.229Z,1011.36
2018-08-06T11:30:22.224Z,1011.38
2018-08-06T11:31:22.338Z,1011.33
2018-08-06T11:32:22.194Z,1011.35
2018-08-06T11:33:22.186Z,1011.37
2018-08-06T11:34:22.202Z,1011.31
2018-08-06T11:35:22.166Z,1011.31
2018-08-06T11:36:22.152Z,1011.30
2018-08-06T11:37:22.143Z,1011.26
2018-08-06T11:38:22.134Z,1011.28
2018-08-06T11:39:22.156Z,1011.24
2018-08-06T11:40:22.123Z,1011.28
2018-08-06T11:41:22.098Z,1011.28
2018-08-06T11:42:22.086Z,1011.21
2018-08-06T11:43:22.079Z,1011.26
2018-08-06T11:44:22.097Z,1011.19
2018-08-06T11:45:22.083Z,1011.22
2018-08-06T11:46:22.070Z,1011.18
2018-08-06T11:47:22.038Z,1011.18
2018-08-06T11:48:22.024Z,1011.18
2018-08-06T11:49:22.013Z,1011.18
2018-08-06T11:50:22.041Z,1011.16
2018-08-06T11:51:21.990Z,1011.11
2018-08-06T11:52:22.006Z,1011.16
2018-08-06T11:53:21.968Z,1011.14
2018-08-06T11:54:22.643Z,1011.16
2018-08-06T11:55:21.952Z,1011.15
2018-08-06T11:56:21.942Z,1011.15
2018-08-06T11:57:21.997Z,1011.12
2018-08-06T11:58:21.917Z,1011.12
2018-08-06T11:59:21.917Z,1011.09
2018-08-06T12:00:21.929Z,1011.11
2018-08-06T12:01:21.891Z,1011.05
2018-08-06T12:02:21.873Z,1011.02
2018-08-06T12:03:21.886Z,1011.07
2018-08-06T12:04:21.855Z,1011.01
2018-08-06T12:05:21.969Z,1011.04